Time;durP1;ratioP1;P1;durP2;ratioP2;P2;SDS_P1;SDS_P2;PMS_P1;PMS_P2;Temp;Humidity;BMP_temperature;BMP_pressure;BME280_temperature;BME280_humidity;BME280_pressure;Samples;Min_cycle;Max_cycle;Signal;HPM_P1;HPM_P2
2022/03/03 00:01:19;;;;;;;4.07;3.58;;;16.50;49.70;;;;;;5051654;28;20171;-68
2022/03/03 00:03:44;;;;;;;4.07;3.67;;;16.50;49.70;;;;;;5051683;28;20175;-68
2022/03/03 00:06:10;;;;;;;4.05;3.65;;;16.50;49.70;;;;;;5051116;28;20178;-68
2022/03/03 00:08:35;;;;;;;3.70;3.40;;;16.50;49.70;;;;;;5051858;28;20167;-68
2022/03/03 00:11:01;;;;;;;3.88;3.58;;;16.50;49.70;;;;;;5051684;28;20626;-69
2022/03/03 00:13:27;;;;;;;4.35;3.83;;;16.50;49.80;;;;;;5051126;28;20175;-69
2022/03/03 00:15:52;;;;;;;4.60;4.20;;;16.50;49.80;;;;;;5051313;28;20207;-69
2022/03/03 00:18:18;;;;;;;4.18;3.80;;;16.50;49.80;;;;;;5051678;28;20167;-68
2022/03/03 00:20:43;;;;;;;4.07;3.72;;;16.50;49.80;;;;;;5050827;28;20175;-69
2022/03/03 00:23:09;;;;;;;4.25;3.88;;;16.40;49.80;;;;;;5051253;28;20262;-68
2022/03/03 00:25:37;;;;;;;4.90;4.05;;;16.40;50.40;;;;;;5056037;28;20653;-68
2022/03/03 00:28:03;;;;;;;3.63;3.28;;;16.40;49.90;;;;;;5054771;28;20175;-68
2022/03/03 00:30:29;;;;;;;4.35;3.95;;;16.40;49.80;;;;;;5055749;28;20183;-68
2022/03/03 00:32:55;;;;;;;4.68;3.75;;;16.40;49.80;;;;;;5055145;28;20535;-68
2022/03/03 00:35:20;;;;;;;5.07;4.03;;;16.40;49.90;;;;;;5054985;28;20179;-68
2022/03/03 00:37:46;;;;;;;4.32;3.92;;;16.40;50.00;;;;;;5055586;28;20182;-68
2022/03/03 00:40:12;;;;;;;6.13;4.10;;;16.30;49.90;;;;;;5055204;28;20182;-68
2022/03/03 00:42:38;;;;;;;4.28;3.97;;;16.30;49.90;;;;;;5054838;28;20188;-68
2022/03/03 00:45:04;;;;;;;4.30;4.00;;;16.30;49.90;;;;;;5055136;28;20622;-68
2022/03/03 00:47:29;;;;;;;4.30;3.90;;;16.30;49.90;;;;;;5055469;28;20207;-68
2022/03/03 00:49:54;;;;;;;4.30;3.90;;;16.30;50.00;;;;;;5054571;28;20175;-68
2022/03/03 00:52:20;;;;;;;5.20;4.38;;;16.30;49.90;;;;;;5055450;28;20175;-68
2022/03/03 00:54:46;;;;;;;4.43;4.03;;;16.30;49.90;;;;;;5055091;28;20227;-68
2022/03/03 00:57:11;;;;;;;4.88;4.45;;;16.20;49.90;;;;;;5054217;28;20214;-68
2022/03/03 00:59:37;;;;;;;4.10;3.80;;;16.30;50.00;;;;;;5054972;28;20237;-68
2022/03/03 01:02:02;;;;;;;6.20;4.28;;;16.20;49.90;;;;;;5054819;28;20205;-67
2022/03/03 01:04:28;;;;;;;4.72;4.30;;;16.30;50.60;;;;;;5054183;28;20175;-68
2022/03/03 01:06:53;;;;;;;4.13;3.83;;;16.20;49.90;;;;;;5054959;28;20699;-68
2022/03/03 01:09:19;;;;;;;5.00;4.00;;;16.20;49.90;;;;;;5054411;28;20190;-69
2022/03/03 01:11:44;;;;;;;4.10;3.78;;;16.20;50.00;;;;;;5054757;28;20654;-69
2022/03/03 01:14:10;;;;;;;4.43;3.95;;;16.20;49.90;;;;;;5054678;28;20195;-69
2022/03/03 01:16:35;;;;;;;4.75;4.20;;;16.20;50.00;;;;;;5054022;28;20706;-69
2022/03/03 01:19:01;;;;;;;4.60;4.20;;;16.20;50.00;;;;;;5054607;28;20175;-68
2022/03/03 01:21:26;;;;;;;4.72;4.32;;;16.20;50.00;;;;;;5054820;28;20207;-69
2022/03/03 01:23:53;;;;;;;4.72;4.22;;;16.20;50.00;;;;;;5054105;28;20178;-69
2022/03/03 01:26:18;;;;;;;4.47;4.07;;;16.20;50.00;;;;;;5054862;28;20179;-69
2022/03/03 01:28:44;;;;;;;3.83;3.50;;;16.10;50.00;;;;;;5054752;28;20176;-69
2022/03/03 01:31:09;;;;;;;3.90;3.60;;;16.10;50.00;;;;;;5053697;28;20175;-69
2022/03/03 01:33:35;;;;;;;5.03;4.38;;;16.10;50.00;;;;;;5054843;28;20296;-68
2022/03/03 01:36:00;;;;;;;4.80;3.95;;;16.10;50.00;;;;;;5053329;28;20235;-68
2022/03/03 01:38:26;;;;;;;4.28;3.88;;;16.10;50.00;;;;;;5053752;28;20193;-68
2022/03/03 01:40:51;;;;;;;4.15;3.75;;;16.10;50.00;;;;;;5054523;28;20175;-68
2022/03/03 01:43:17;;;;;;;4.40;4.00;;;16.10;50.10;;;;;;5054242;28;20175;-68
2022/03/03 01:45:42;;;;;;;4.03;3.65;;;16.10;50.00;;;;;;5053474;28;20228;-68
2022/03/03 01:48:08;;;;;;;4.18;3.72;;;16.10;50.00;;;;;;5053956;28;20249;-68
2022/03/03 01:50:33;;;;;;;4.60;4.15;;;16.10;50.00;;;;;;5054167;28;20594;-68
2022/03/03 01:52:59;;;;;;;4.45;4.05;;;16.00;50.00;;;;;;5053086;28;20355;-68
2022/03/03 01:55:24;;;;;;;4.38;4.00;;;16.00;50.00;;;;;;5053896;28;20712;-69
2022/03/03 01:57:50;;;;;;;4.30;3.90;;;16.00;50.00;;;;;;5054085;28;20183;-68
2022/03/03 02:00:16;;;;;;;4.45;4.15;;;16.00;50.00;;;;;;5053078;28;20206;-68
2022/03/03 02:02:41;;;;;;;4.68;4.28;;;16.00;50.00;;;;;;5053926;28;20232;-68
2022/03/03 02:05:07;;;;;;;4.63;4.05;;;16.00;50.00;;;;;;5053851;28;20624;-68
2022/03/03 02:07:34;;;;;;;4.28;3.88;;;16.00;50.00;;;;;;5053366;28;20175;-68
2022/03/03 02:10:01;;;;;;;4.80;4.30;;;16.00;50.10;;;;;;5053563;28;20630;-70
2022/03/03 02:12:26;;;;;;;3.72;3.42;;;15.90;50.00;;;;;;5053360;28;20190;-69
2022/03/03 02:14:52;;;;;;;4.55;4.13;;;15.90;50.00;;;;;;5053644;28;20187;-68
2022/03/03 02:17:17;;;;;;;4.68;4.22;;;16.00;50.10;;;;;;5053682;28;20572;-68
2022/03/03 02:19:43;;;;;;;4.25;3.92;;;15.90;50.10;;;;;;5052979;28;20214;-68
2022/03/03 02:22:08;;;;;;;4.28;3.97;;;15.90;50.10;;;;;;5053572;28;20182;-69
2022/03/03 02:24:35;;;;;;;4.70;4.18;;;15.90;50.10;;;;;;5053643;28;20601;-69
2022/03/03 02:27:01;;;;;;;4.35;3.95;;;15.90;50.10;;;;;;5052783;28;20537;-69
2022/03/03 02:29:30;;;;;;;4.63;4.22;;;15.90;50.10;;;;;;5053474;28;20646;-70
2022/03/03 02:31:57;;;;;;;4.88;4.47;;;15.90;50.70;;;;;;5053053;28;20190;-68
2022/03/03 02:34:23;;;;;;;4.50;4.10;;;15.90;50.10;;;;;;5052671;28;20220;-68
2022/03/03 02:36:48;;;;;;;4.35;3.95;;;15.90;50.10;;;;;;5053273;28;20207;-68
2022/03/03 02:39:14;;;;;;;4.70;4.30;;;15.90;50.10;;;;;;5053130;28;20182;-68
2022/03/03 02:41:39;;;;;;;5.05;4.55;;;15.90;50.10;;;;;;5052668;28;20191;-68
2022/03/03 02:44:05;;;;;;;4.53;4.13;;;15.90;50.10;;;;;;5052872;28;20171;-68
2022/03/03 02:46:31;;;;;;;4.82;4.30;;;15.80;50.00;;;;;;5053025;28;20180;-68
2022/03/03 02:48:56;;;;;;;4.80;4.40;;;15.80;50.20;;;;;;5052478;28;20480;-68
2022/03/03 02:51:22;;;;;;;4.90;4.40;;;15.80;50.00;;;;;;5053192;28;20549;-69
2022/03/03 02:53:47;;;;;;;4.50;4.10;;;15.80;50.10;;;;;;5052919;28;20241;-69
2022/03/03 02:56:13;;;;;;;4.43;4.10;;;15.80;50.00;;;;;;5051870;28;20268;-68
2022/03/03 02:58:38;;;;;;;4.50;4.10;;;15.80;50.10;;;;;;5052862;28;20195;-68
2022/03/03 03:01:04;;;;;;;4.93;4.45;;;15.80;50.10;;;;;;5051368;28;20181;-68
2022/03/03 03:03:30;;;;;;;5.30;4.80;;;15.80;50.10;;;;;;5051944;28;20175;-68
2022/03/03 03:05:56;;;;;;;4.50;4.10;;;15.80;50.10;;;;;;5052599;28;20704;-68
2022/03/03 03:08:21;;;;;;;4.03;3.63;;;15.80;50.10;;;;;;5052963;28;20175;-68
2022/03/03 03:10:47;;;;;;;4.85;4.30;;;15.70;50.10;;;;;;5052035;28;20221;-68
2022/03/03 03:13:14;;;;;;;4.97;4.57;;;15.80;50.10;;;;;;5052396;28;20182;-69
2022/03/03 03:15:39;;;;;;;4.90;4.50;;;15.70;50.10;;;;;;5052421;28;20262;-69
2022/03/03 03:18:16;;;;;;;5.03;4.30;;;15.70;50.10;;;;;;5051682;28;20269;-68
2022/03/03 03:20:44;;;;;;;4.70;4.30;;;15.70;50.10;;;;;;5052352;28;20648;-68
2022/03/03 03:23:10;;;;;;;4.60;4.13;;;15.70;50.10;;;;;;5052124;28;20175;-68
2022/03/03 03:25:37;;;;;;;4.68;4.28;;;15.70;50.10;;;;;;5053498;28;20183;-69
2022/03/03 03:28:03;;;;;;;4.20;3.88;;;15.70;50.80;;;;;;5052756;28;20218;-69
2022/03/03 03:30:29;;;;;;;4.85;4.40;;;15.70;50.10;;;;;;5052650;28;20202;-69
2022/03/03 03:32:54;;;;;;;4.90;4.45;;;15.70;50.10;;;;;;5053029;28;20175;-68
2022/03/03 03:35:20;;;;;;;4.15;3.85;;;15.70;50.10;;;;;;5053251;28;20191;-68
2022/03/03 03:37:45;;;;;;;4.38;4.00;;;15.60;50.10;;;;;;5052323;28;20210;-68
2022/03/03 03:40:12;;;;;;;4.68;4.28;;;15.60;50.10;;;;;;5052735;28;20210;-68
2022/03/03 03:42:38;;;;;;;4.88;4.47;;;15.70;50.20;;;;;;5051720;28;20741;-68
2022/03/03 03:45:04;;;;;;;5.53;5.03;;;15.60;50.10;;;;;;5052208;28;20172;-68
2022/03/03 03:47:29;;;;;;;4.40;4.05;;;15.60;50.10;;;;;;5052794;28;20199;-68
2022/03/03 03:49:55;;;;;;;4.60;4.20;;;15.60;50.10;;;;;;5052609;28;20266;-68
2022/03/03 03:52:20;;;;;;;4.30;3.90;;;15.60;50.10;;;;;;5052149;28;20187;-68
2022/03/03 03:54:46;;;;;;;4.80;4.40;;;15.60;50.10;;;;;;5052709;28;20249;-68
2022/03/03 03:57:11;;;;;;;4.55;4.15;;;15.60;50.10;;;;;;5052333;28;20717;-68
2022/03/03 03:59:37;;;;;;;5.00;4.57;;;15.60;50.10;;;;;;5051644;28;20326;-68
2022/03/03 04:02:03;;;;;;;4.60;4.20;;;15.60;50.10;;;;;;5052661;28;20637;-68
2022/03/03 04:04:28;;;;;;;5.00;4.60;;;15.60;50.10;;;;;;5052820;28;20694;-68
2022/03/03 04:06:54;;;;;;;4.10;3.70;;;15.60;50.10;;;;;;5051623;28;20533;-69
2022/03/03 04:09:19;;;;;;;4.43;4.03;;;15.60;50.10;;;;;;5052680;28;20215;-69
2022/03/03 04:11:45;;;;;;;4.70;4.30;;;15.50;50.10;;;;;;5052473;28;20199;-69
2022/03/03 04:14:13;;;;;;;4.50;4.10;;;15.50;50.10;;;;;;5051758;28;20189;-69
2022/03/03 04:16:38;;;;;;;4.85;4.45;;;15.50;50.10;;;;;;5052534;28;20305;-68
2022/03/03 04:19:05;;;;;;;5.25;4.75;;;15.50;50.10;;;;;;5051464;28;20529;-68
2022/03/03 04:21:31;;;;;;;4.85;4.45;;;15.50;50.10;;;;;;5052481;28;20187;-69
2022/03/03 04:23:57;;;;;;;4.88;4.47;;;15.50;50.10;;;;;;5052278;28;20210;-69
2022/03/03 04:26:22;;;;;;;4.55;4.10;;;15.50;50.10;;;;;;5051777;28;20206;-69
2022/03/03 04:28:48;;;;;;;5.28;4.57;;;15.50;50.10;;;;;;5052648;28;20246;-69
2022/03/03 04:31:13;;;;;;;4.75;4.35;;;15.50;50.10;;;;;;5052132;28;20178;-68
2022/03/03 04:33:39;;;;;;;4.82;4.32;;;15.50;50.10;;;;;;5051733;28;20175;-68
2022/03/03 04:36:05;;;;;;;4.95;4.55;;;15.50;50.10;;;;;;5052027;28;20199;-68
2022/03/03 04:38:30;;;;;;;4.35;3.80;;;15.50;50.10;;;;;;5052265;28;20171;-68
2022/03/03 04:40:56;;;;;;;4.82;4.43;;;15.40;50.10;;;;;;5051252;28;20167;-68
2022/03/03 04:43:21;;;;;;;4.57;4.18;;;15.40;50.10;;;;;;5052236;28;20175;-68
2022/03/03 04:45:47;;;;;;;4.65;4.25;;;15.40;50.10;;;;;;5051172;28;20618;-68
2022/03/03 04:48:12;;;;;;;4.78;4.38;;;15.40;50.10;;;;;;5051306;28;20175;-68
2022/03/03 04:50:38;;;;;;;5.00;4.60;;;15.40;50.10;;;;;;5052345;28;20657;-69
2022/03/03 04:53:03;;;;;;;5.20;4.45;;;15.40;50.10;;;;;;5052021;28;20638;-69
2022/03/03 04:55:29;;;;;;;4.90;4.50;;;15.40;50.10;;;;;;5051167;28;20235;-68
2022/03/03 04:57:54;;;;;;;4.95;4.55;;;15.40;50.10;;;;;;5052036;28;20178;-68
2022/03/03 05:00:20;;;;;;;5.20;4.80;;;15.40;50.10;;;;;;5052095;28;20183;-67
2022/03/03 05:02:45;;;;;;;5.30;4.90;;;15.40;50.10;;;;;;5051507;28;20511;-67
2022/03/03 05:05:11;;;;;;;5.05;4.63;;;15.30;50.10;;;;;;5051813;28;20170;-68
2022/03/03 05:07:36;;;;;;;5.10;4.70;;;15.30;50.10;;;;;;5052193;28;20180;-68
2022/03/03 05:10:03;;;;;;;4.45;4.05;;;15.30;50.10;;;;;;5052536;28;20246;-69
2022/03/03 05:12:28;;;;;;;4.93;4.53;;;15.30;50.70;;;;;;5056572;28;20171;-69
2022/03/03 05:14:54;;;;;;;4.80;4.38;;;15.30;50.10;;;;;;5056509;28;20178;-68
2022/03/03 05:17:20;;;;;;;5.15;4.65;;;15.30;50.10;;;;;;5055453;28;20214;-69
2022/03/03 05:19:45;;;;;;;4.75;4.35;;;15.30;50.10;;;;;;5056100;28;20171;-69
2022/03/03 05:22:11;;;;;;;4.70;4.30;;;15.30;50.10;;;;;;5055373;28;20182;-68
2022/03/03 05:24:38;;;;;;;5.50;5.05;;;15.30;50.10;;;;;;5054716;28;20206;-68
2022/03/03 05:27:04;;;;;;;4.82;4.43;;;15.30;50.10;;;;;;5055533;28;20298;-68
2022/03/03 05:29:29;;;;;;;5.40;4.90;;;15.20;50.00;;;;;;5054436;28;20633;-69
2022/03/03 05:31:57;;;;;;;4.95;4.25;;;15.30;50.10;;;;;;5055254;28;20672;-69
2022/03/03 05:34:23;;;;;;;5.43;4.93;;;15.30;50.10;;;;;;5055031;28;20258;-68
2022/03/03 05:36:48;;;;;;;4.82;4.43;;;15.20;50.00;;;;;;5054458;28;20305;-68
2022/03/03 05:39:14;;;;;;;4.95;4.47;;;15.20;50.10;;;;;;5054778;28;20580;-68
2022/03/03 05:41:39;;;;;;;4.85;4.45;;;15.20;50.10;;;;;;5054173;28;20183;-68
2022/03/03 05:44:05;;;;;;;5.75;5.25;;;15.20;50.10;;;;;;5054405;28;20175;-69
2022/03/03 05:46:31;;;;;;;5.07;4.68;;;15.20;50.10;;;;;;5053775;28;20171;-68
2022/03/03 05:48:56;;;;;;;5.55;5.05;;;15.20;50.00;;;;;;5055120;28;20652;-68
2022/03/03 05:51:22;;;;;;;5.43;4.93;;;15.20;50.10;;;;;;5054102;28;20183;-68
2022/03/03 05:53:47;;;;;;;5.13;4.63;;;15.20;50.10;;;;;;5054688;28;20268;-68
2022/03/03 05:56:15;;;;;;;5.35;4.85;;;15.20;50.10;;;;;;5054705;28;20203;-68
2022/03/03 05:58:42;;;;;;;5.00;4.60;;;15.20;50.10;;;;;;5052791;28;20731;-67
2022/03/03 06:01:09;;;;;;;5.15;4.65;;;15.10;50.00;;;;;;5053597;28;20247;-67
2022/03/03 06:03:34;;;;;;;5.03;4.57;;;15.20;49.90;;;;;;5054977;28;20199;-67
2022/03/03 06:06:07;;;;;;;5.18;4.72;;;15.20;49.70;;;;;;5052825;28;20235;-67
2022/03/03 06:08:39;;;;;;;4.90;4.43;;;15.30;49.60;;;;;;5053382;28;20290;-68
2022/03/03 06:11:05;;;;;;;4.70;4.30;;;15.40;49.40;;;;;;5054896;28;20175;-69
2022/03/03 06:13:39;;;;;;;4.70;4.30;;;15.50;49.40;;;;;;5052730;28;20175;-68
2022/03/03 06:16:04;;;;;;;4.85;4.40;;;15.70;49.30;;;;;;5054591;28;20207;-69
2022/03/03 06:18:33;;;;;;;4.53;4.13;;;15.80;49.30;;;;;;5054291;28;20232;-68
2022/03/03 06:20:59;;;;;;;5.00;4.60;;;15.90;49.20;;;;;;5053411;28;20316;-68
2022/03/03 06:23:25;;;;;;;4.63;4.22;;;16.10;49.00;;;;;;5053848;28;21038;-68
2022/03/03 06:26:06;;;;;;;4.88;4.47;;;16.30;48.70;;;;;;5053742;28;20175;-69
2022/03/03 06:28:33;;;;;;;4.82;4.43;;;16.50;48.50;;;;;;5053197;28;20186;-68
2022/03/03 06:30:58;;;;;;;4.80;4.40;;;16.50;48.30;;;;;;5053093;28;20691;-68
2022/03/03 06:33:25;;;;;;;4.30;3.90;;;16.60;48.20;;;;;;5053236;28;20203;-68
2022/03/03 06:35:51;;;;;;;4.30;4.00;;;16.70;48.10;;;;;;5054113;28;20563;-67
2022/03/03 06:38:16;;;;;;;4.30;3.90;;;16.80;48.00;;;;;;5053742;28;20187;-67
2022/03/03 06:40:42;;;;;;;4.30;4.00;;;16.80;47.90;;;;;;5053189;28;20175;-68
2022/03/03 06:43:08;;;;;;;3.88;3.58;;;16.90;47.90;;;;;;5053845;28;20179;-68
2022/03/03 06:45:33;;;;;;;4.22;3.92;;;16.90;47.80;;;;;;5069375;28;20178;-68
2022/03/03 06:48:00;;;;;;;4.13;3.83;;;16.90;47.90;;;;;;5053174;28;20175;-68
2022/03/03 06:50:26;;;;;;;4.82;4.43;;;16.90;47.80;;;;;;5053750;28;20179;-68
2022/03/03 06:52:51;;;;;;;4.47;4.07;;;17.00;47.80;;;;;;5052614;28;20175;-68
2022/03/03 06:55:24;;;;;;;4.82;4.43;;;17.00;47.70;;;;;;5052689;28;20238;-68
2022/03/03 06:57:51;;;;;;;4.65;4.25;;;17.10;47.60;;;;;;5053829;28;20222;-67
2022/03/03 07:00:21;;;;;;;4.45;4.05;;;17.00;47.70;;;;;;5053323;28;20248;-68
2022/03/03 07:02:47;;;;;;;4.15;3.75;;;17.00;47.80;;;;;;5052855;28;20186;-67
2022/03/03 07:05:14;;;;;;;4.72;4.32;;;17.10;47.70;;;;;;5052325;28;20167;-68
2022/03/03 07:07:41;;;;;;;4.45;4.15;;;17.10;47.70;;;;;;5053471;28;20685;-68
2022/03/03 07:10:07;;;;;;;4.45;4.05;;;17.20;47.60;;;;;;5051409;28;20254;-69
2022/03/03 07:12:33;;;;;;;4.20;3.90;;;17.30;47.60;;;;;;5052196;28;20182;-68
2022/03/03 07:14:58;;;;;;;4.55;4.15;;;17.30;47.60;;;;;;5052661;28;20175;-68
2022/03/03 07:17:47;;;;;;;4.32;3.95;;;17.30;47.60;;;;;;5053148;28;20276;-68
2022/03/03 07:20:19;;;;;;;4.60;4.18;;;17.20;47.60;;;;;;5052965;28;20179;-68
2022/03/03 07:23:03;;;;;;;4.22;3.83;;;17.20;47.60;;;;;;5051543;28;20203;-67
2022/03/03 07:25:51;;;;;;;3.92;3.63;;;17.20;47.70;;;;;;5052803;28;20210;-68
2022/03/03 07:28:18;;;;;;;3.95;3.65;;;17.30;47.60;;;;;;5051891;28;20601;-68
2022/03/03 07:30:44;;;;;;;4.30;3.90;;;17.40;47.60;;;;;;5051368;28;20218;-68
2022/03/03 07:33:15;;;;;;;4.13;3.83;;;17.50;47.70;;;;;;5051838;28;20182;-67
2022/03/03 07:35:42;;;;;;;3.72;3.42;;;17.60;47.40;;;;;;5051756;28;20179;-67
2022/03/03 07:38:15;;;;;;;3.70;3.38;;;17.80;47.90;;;;;;5051878;28;20261;-68
2022/03/03 07:40:42;;;;;;;3.55;3.25;;;17.90;47.10;;;;;;5053205;28;20232;-68
2022/03/03 07:43:07;;;;;;;4.50;3.90;;;18.00;47.00;;;;;;5051882;28;20727;-68
2022/03/03 07:45:33;;;;;;;3.95;3.60;;;18.10;46.90;;;;;;5052928;28;20179;-68
2022/03/03 07:47:59;;;;;;;3.90;3.60;;;18.10;47.00;;;;;;5052940;28;20537;-67
2022/03/03 07:50:25;;;;;;;4.55;4.10;;;18.10;47.00;;;;;;5051942;28;20225;-68
2022/03/03 07:52:50;;;;;;;5.18;3.90;;;18.20;47.30;;;;;;5052973;28;20254;-68
2022/03/03 07:55:16;;;;;;;4.95;3.80;;;18.20;47.40;;;;;;5052279;28;20246;-69
2022/03/03 07:57:57;;;;;;;5.43;4.10;;;18.30;47.40;;;;;;5052174;28;20218;-68
2022/03/03 08:00:23;;;;;;;4.28;3.88;;;18.40;47.30;;;;;;5051467;28;20183;-71
2022/03/03 08:02:50;;;;;;;4.82;4.07;;;18.40;47.30;;;;;;5051493;28;20236;-68
2022/03/03 08:05:15;;;;;;;5.53;4.50;;;18.40;47.40;;;;;;5050244;28;20186;-69
2022/03/03 08:07:43;;;;;;;4.65;4.25;;;18.40;47.40;;;;;;5051254;28;20167;-68
2022/03/03 08:10:09;;;;;;;4.55;4.07;;;18.50;47.50;;;;;;5052432;28;20186;-71
2022/03/03 08:12:34;;;;;;;5.90;3.90;;;18.60;47.40;;;;;;5052299;28;20167;-69
2022/03/03 08:15:00;;;;;;;4.20;3.80;;;18.70;47.30;;;;;;5052525;28;20530;-69
2022/03/03 08:17:25;;;;;;;4.65;4.07;;;18.70;47.30;;;;;;5052030;28;20214;-69
2022/03/03 08:19:53;;;;;;;4.32;3.92;;;18.80;47.30;;;;;;5050547;28;20183;-68
2022/03/03 08:22:18;;;;;;;5.05;4.22;;;18.70;47.30;;;;;;5050836;28;20179;-69
2022/03/03 08:24:44;;;;;;;4.75;4.25;;;18.80;47.50;;;;;;5051562;28;20181;-69
2022/03/03 08:27:11;;;;;;;4.50;4.10;;;18.80;47.50;;;;;;5050192;28;20175;-70
2022/03/03 08:29:37;;;;;;;4.40;4.00;;;18.90;47.60;;;;;;5052409;28;20175;-70
2022/03/03 08:32:02;;;;;;;5.30;3.95;;;18.80;47.50;;;;;;5052357;28;20642;-69
2022/03/03 08:34:53;;;;;;;4.22;3.83;;;18.80;47.60;;;;;;5049984;28;20178;-68
2022/03/03 08:37:37;;;;;;;5.43;3.85;;;18.90;47.70;;;;;;5047688;28;20227;-68
2022/03/03 08:40:05;;;;;;;5.25;3.75;;;18.80;47.70;;;;;;5051790;28;20214;-69
2022/03/03 08:42:34;;;;;;;4.60;3.88;;;18.90;47.80;;;;;;5052179;28;20583;-70
2022/03/03 08:45:02;;;;;;;4.13;3.63;;;18.90;47.80;;;;;;5052710;28;20229;-69
2022/03/03 08:47:28;;;;;;;4.93;4.43;;;18.90;47.80;;;;;;5055090;28;20657;-68
2022/03/03 08:49:57;;;;;;;5.30;4.10;;;18.90;47.90;;;;;;5056239;28;20213;-68
2022/03/03 08:52:23;;;;;;;4.22;3.55;;;18.90;47.80;;;;;;5055843;28;20277;-68
2022/03/03 08:54:48;;;;;;;3.97;3.58;;;18.90;47.80;;;;;;5054051;28;20680;-68
2022/03/03 08:57:14;;;;;;;4.38;3.55;;;18.80;47.90;;;;;;5055570;28;20207;-67
2022/03/03 08:59:39;;;;;;;5.18;3.97;;;18.80;48.00;;;;;;5055948;28;20175;-67
2022/03/03 09:02:05;;;;;;;5.20;4.10;;;18.70;48.00;;;;;;5054946;28;20853;-67
2022/03/03 09:04:30;;;;;;;4.50;3.97;;;18.70;48.10;;;;;;5055893;28;20175;-68
2022/03/03 09:06:56;;;;;;;4.22;3.83;;;18.60;48.20;;;;;;5055763;28;20186;-68
2022/03/03 09:09:21;;;;;;;4.32;3.85;;;18.60;48.20;;;;;;5054868;28;20703;-68
2022/03/03 09:11:47;;;;;;;5.07;4.00;;;18.60;48.30;;;;;;5055752;28;20187;-69
2022/03/03 09:14:12;;;;;;;5.88;4.13;;;18.60;48.30;;;;;;5055614;28;20171;-68
2022/03/03 09:16:38;;;;;;;4.57;4.18;;;18.60;48.20;;;;;;5055054;28;20207;-68
2022/03/03 09:19:04;;;;;;;6.53;4.32;;;18.50;48.20;;;;;;5055839;28;20176;-68
2022/03/03 09:21:29;;;;;;;4.78;3.78;;;18.50;48.20;;;;;;5054572;28;20179;-68
2022/03/03 09:23:55;;;;;;;3.95;3.63;;;18.50;48.30;;;;;;5055673;28;20171;-68
2022/03/03 09:26:21;;;;;;;4.28;3.80;;;18.40;48.40;;;;;;5055335;28;20170;-68
2022/03/03 09:28:46;;;;;;;5.82;3.70;;;18.50;48.50;;;;;;5054832;28;20252;-68
2022/03/03 09:31:12;;;;;;;4.20;3.80;;;18.50;48.60;;;;;;5055383;28;20218;-68
2022/03/03 09:33:37;;;;;;;4.85;3.92;;;18.50;48.60;;;;;;5055478;28;20183;-67
2022/03/03 09:36:03;;;;;;;3.90;3.53;;;18.50;48.50;;;;;;5054650;28;20586;-67
2022/03/03 09:38:29;;;;;;;4.20;3.80;;;18.50;48.40;;;;;;5055105;28;20190;-67
2022/03/03 09:40:54;;;;;;;4.25;3.85;;;18.60;48.30;;;;;;5055050;28;20175;-68
2022/03/03 09:43:20;;;;;;;4.18;3.80;;;18.60;48.30;;;;;;5054432;28;20653;-68
2022/03/03 09:45:45;;;;;;;4.93;3.85;;;18.60;48.20;;;;;;5055336;28;20537;-68
2022/03/03 09:48:11;;;;;;;4.00;3.70;;;18.50;48.20;;;;;;5054919;28;20184;-68
2022/03/03 09:50:38;;;;;;;3.67;3.25;;;18.50;48.40;;;;;;5054485;28;20241;-68
2022/03/03 09:53:11;;;;;;;4.47;3.58;;;18.50;48.50;;;;;;5055047;28;20258;-68
2022/03/03 09:55:38;;;;;;;3.83;3.33;;;18.50;48.60;;;;;;5054638;28;20227;-68
2022/03/03 09:58:06;;;;;;;4.43;3.78;;;18.50;48.70;;;;;;5053726;28;20218;-68
2022/03/03 10:00:33;;;;;;;3.65;3.35;;;18.50;48.80;;;;;;5054969;28;20187;-67
2022/03/03 10:03:03;;;;;;;3.88;3.47;;;18.50;48.80;;;;;;5054990;28;20179;-66
2022/03/03 10:05:45;;;;;;;4.20;3.30;;;18.50;48.70;;;;;;5053712;28;20253;-67
2022/03/03 10:08:11;;;;;;;4.55;3.33;;;18.50;48.80;;;;;;5054751;28;20187;-68
2022/03/03 10:10:39;;;;;;;3.42;3.13;;;18.50;48.80;;;;;;5054754;28;20171;-68
2022/03/03 10:13:04;;;;;;;3.63;3.20;;;18.50;49.00;;;;;;5054144;28;20179;-68
2022/03/03 10:15:30;;;;;;;3.53;3.22;;;18.50;48.80;;;;;;5054469;28;20175;-68
2022/03/03 10:18:01;;;;;;;3.63;3.13;;;18.50;48.70;;;;;;5053902;28;20210;-68
2022/03/03 10:20:28;;;;;;;3.72;3.40;;;18.50;48.80;;;;;;5054187;28;20183;-68
2022/03/03 10:23:00;;;;;;;3.70;3.40;;;18.50;48.70;;;;;;5054699;28;20597;-68
2022/03/03 10:25:33;;;;;;;3.70;3.35;;;18.50;48.80;;;;;;5053380;28;20713;-68
2022/03/03 10:28:25;;;;;;;3.47;3.08;;;18.50;48.80;;;;;;5054466;28;20180;-68
2022/03/03 10:31:00;;;;;;;4.53;4.07;;;18.60;48.90;;;;;;5051697;28;20298;-68
2022/03/03 10:33:30;;;;;;;3.10;2.90;;;18.60;48.90;;;;;;5053426;28;20254;-67
2022/03/03 10:36:06;;;;;;;4.07;3.45;;;18.60;48.90;;;;;;5054279;28;20171;-68
2022/03/03 10:38:33;;;;;;;3.88;3.58;;;18.60;48.90;;;;;;5054331;28;20257;-67
2022/03/03 10:40:59;;;;;;;3.72;3.33;;;18.60;48.90;;;;;;5053277;28;20633;-67
2022/03/03 10:43:24;;;;;;;3.75;3.13;;;18.60;48.80;;;;;;5052545;28;20266;-67
2022/03/03 10:46:08;;;;;;;3.78;3.38;;;18.60;48.80;;;;;;5052836;28;20171;-68
2022/03/03 10:48:34;;;;;;;3.80;3.35;;;18.60;48.90;;;;;;5054378;28;20179;-68
2022/03/03 10:51:00;;;;;;;3.28;3.00;;;18.60;48.90;;;;;;5053042;28;20557;-68
2022/03/03 10:53:26;;;;;;;3.90;3.60;;;18.60;48.90;;;;;;5052734;28;20665;-68
2022/03/03 10:56:01;;;;;;;3.67;2.88;;;18.60;48.90;;;;;;5053626;28;20314;-68
2022/03/03 10:59:04;;;;;;;4.03;3.22;;;18.60;48.90;;;;;;5053669;28;20205;-67
2022/03/03 11:01:30;;;;;;;3.28;2.97;;;18.60;48.90;;;;;;5030581;28;20297;-68
2022/03/03 11:03:55;;;;;;;3.35;3.05;;;18.60;48.90;;;;;;5049299;28;20703;-68
2022/03/03 11:06:24;;;;;;;3.80;3.50;;;18.60;48.90;;;;;;5053145;28;20232;-67
2022/03/03 11:08:50;;;;;;;3.50;3.13;;;18.60;48.90;;;;;;5052883;28;20178;-69
2022/03/03 11:11:21;;;;;;;4.63;3.17;;;18.60;48.90;;;;;;5053298;28;20228;-68
2022/03/03 11:13:49;;;;;;;3.45;3.15;;;18.60;48.90;;;;;;5052523;28;20202;-68
2022/03/03 11:16:15;;;;;;;3.60;3.30;;;18.60;49.00;;;;;;5052286;28;20207;-68
2022/03/03 11:18:41;;;;;;;3.30;3.00;;;18.60;49.00;;;;;;5053385;28;20213;-68
2022/03/03 11:21:07;;;;;;;3.47;3.17;;;18.60;48.90;;;;;;5051181;28;20195;-68
2022/03/03 11:23:46;;;;;;;3.63;3.33;;;18.60;49.00;;;;;;5053456;28;20175;-68
2022/03/03 11:26:26;;;;;;;3.80;3.17;;;18.60;48.90;;;;;;5051784;28;20179;-68
2022/03/03 11:29:02;;;;;;;3.63;3.17;;;18.60;48.90;;;;;;5052806;28;20183;-68
2022/03/03 11:31:32;;;;;;;3.45;3.15;;;18.60;48.90;;;;;;5052877;28;20634;-68
2022/03/03 11:34:30;;;;;;;3.60;3.30;;;18.60;48.80;;;;;;5053330;28;20183;-68
2022/03/03 11:37:18;;;;;;;3.20;2.90;;;18.60;48.90;;;;;;5052378;28;20650;-67
2022/03/03 11:39:57;;;;;;;3.50;3.20;;;18.60;48.90;;;;;;5052959;28;20175;-67
2022/03/03 11:42:37;;;;;;;3.50;3.20;;;18.70;48.90;;;;;;5052277;28;20180;-67
2022/03/03 11:45:18;;;;;;;3.38;3.08;;;18.70;48.80;;;;;;5053210;28;20213;-66
2022/03/03 11:47:47;;;;;;;3.38;2.85;;;18.70;48.80;;;;;;5053188;28;20189;-67
2022/03/03 11:50:24;;;;;;;3.65;3.00;;;18.70;48.70;;;;;;5052004;28;20211;-68
2022/03/03 11:52:56;;;;;;;3.17;2.92;;;18.70;48.70;;;;;;5053064;28;20224;-66
2022/03/03 11:55:30;;;;;;;3.38;3.08;;;18.70;48.70;;;;;;5051135;28;20227;-67
2022/03/03 11:58:06;;;;;;;3.58;3.28;;;18.70;48.70;;;;;;5052146;28;20218;-67
2022/03/03 12:00:33;;;;;;;3.53;3.20;;;18.70;48.60;;;;;;5052752;28;20171;-66
2022/03/03 12:03:22;;;;;;;5.43;3.03;;;18.70;48.60;;;;;;5052727;28;20642;-68
2022/03/03 12:05:48;;;;;;;4.35;2.97;;;18.80;48.50;;;;;;5053147;28;20259;-68
2022/03/03 12:08:13;;;;;;;4.30;3.10;;;18.80;48.40;;;;;;5052385;28;20646;-72
2022/03/03 12:11:05;;;;;;;4.03;3.13;;;18.80;48.50;;;;;;5051850;28;20209;-74
2022/03/03 12:13:33;;;;;;;3.30;3.00;;;18.80;48.50;;;;;;5052757;28;20183;-73
2022/03/03 12:16:17;;;;;;;3.78;2.90;;;18.70;48.60;;;;;;5052551;28;20250;-69
2022/03/03 12:18:43;;;;;;;3.33;3.03;;;18.70;48.70;;;;;;5051624;28;20652;-67
2022/03/03 12:21:27;;;;;;;3.33;2.60;;;18.70;48.70;;;;;;5051805;28;20179;-69
2022/03/03 12:24:12;;;;;;;6.93;3.22;;;18.70;48.70;;;;;;5052610;28;20171;-68
2022/03/03 12:26:56;;;;;;;4.00;3.15;;;18.80;48.80;;;;;;5051708;28;20178;-69
2022/03/03 12:29:35;;;;;;;4.03;2.53;;;18.80;48.80;;;;;;5052298;28;20183;-69
2022/03/03 12:32:30;;;;;;;3.58;2.92;;;18.80;48.80;;;;;;5051913;28;20198;-68
2022/03/03 12:34:57;;;;;;;4.38;3.03;;;18.70;48.80;;;;;;5052502;28;20201;-67
2022/03/03 12:37:23;;;;;;;2.88;2.58;;;18.70;49.50;;;;;;5051989;28;20218;-70
2022/03/03 12:39:53;;;;;;;4.10;2.78;;;18.70;48.90;;;;;;5051592;28;20170;-68
2022/03/03 12:42:19;;;;;;;4.20;3.17;;;18.70;48.90;;;;;;5051887;28;20337;-69
2022/03/03 12:44:52;;;;;;;3.42;3.13;;;18.80;48.90;;;;;;5052460;28;20218;-69
2022/03/03 12:47:28;;;;;;;4.72;3.10;;;18.80;48.90;;;;;;5051523;28;20182;-71
2022/03/03 12:49:54;;;;;;;5.70;2.38;;;18.80;48.90;;;;;;5051194;28;20183;-71
2022/03/03 12:52:23;;;;;;;4.18;3.08;;;18.80;48.90;;;;;;5050717;28;20237;-70